sensor_id;sensor_type;location;lat;lon;timestamp;temperature;humidity
52415;DHT22;38340;52.964;6.086;2023-05-07T00:02:22;13.70;99.90
52415;DHT22;38340;52.964;6.086;2023-05-07T00:04:48;13.60;99.90
52415;DHT22;38340;52.964;6.086;2023-05-07T00:07:14;13.70;99.90
52415;DHT22;38340;52.964;6.086;2023-05-07T00:09:40;13.70;99.90
52415;DHT22;38340;52.964;6.086;2023-05-07T00:12:07;13.60;99.90
52415;DHT22;38340;52.964;6.086;2023-05-07T00:14:32;13.70;99.90
52415;DHT22;38340;52.964;6.086;2023-05-07T00:16:58;13.60;99.90
52415;DHT22;38340;52.964;6.086;2023-05-07T00:19:24;13.60;99.90
52415;DHT22;38340;52.964;6.086;2023-05-07T00:21:50;13.60;99.90
52415;DHT22;38340;52.964;6.086;2023-05-07T00:24:15;13.60;99.90
52415;DHT22;38340;52.964;6.086;2023-05-07T00:26:41;13.60;99.90
52415;DHT22;38340;52.964;6.086;2023-05-07T00:29:07;13.60;99.90
52415;DHT22;38340;52.964;6.086;2023-05-07T00:31:32;13.50;99.90
52415;DHT22;38340;52.964;6.086;2023-05-07T00:33:58;13.50;99.90
52415;DHT22;38340;52.964;6.086;2023-05-07T00:36:24;13.60;99.90
52415;DHT22;38340;52.964;6.086;2023-05-07T00:38:51;13.60;99.90
52415;DHT22;38340;52.964;6.086;2023-05-07T00:41:16;13.60;99.90
52415;DHT22;38340;52.964;6.086;2023-05-07T00:43:42;13.50;99.90
52415;DHT22;38340;52.964;6.086;2023-05-07T00:46:08;13.50;99.90
52415;DHT22;38340;52.964;6.086;2023-05-07T00:48:33;13.50;99.90
52415;DHT22;38340;52.964;6.086;2023-05-07T00:50:59;13.50;99.90
52415;DHT22;38340;52.964;6.086;2023-05-07T00:53:25;13.50;99.90
52415;DHT22;38340;52.964;6.086;2023-05-07T00:55:52;13.50;99.90
52415;DHT22;38340;52.964;6.086;2023-05-07T00:58:18;13.40;99.90
52415;DHT22;38340;52.964;6.086;2023-05-07T01:00:43;13.40;99.90
52415;DHT22;38340;52.964;6.086;2023-05-07T01:03:09;13.40;99.90
52415;DHT22;38340;52.964;6.086;2023-05-07T01:05:35;13.40;99.90
52415;DHT22;38340;52.964;6.086;2023-05-07T01:08:01;13.40;99.90
52415;DHT22;38340;52.964;6.086;2023-05-07T01:10:28;13.40;99.90
52415;DHT22;38340;52.964;6.086;2023-05-07T01:12:57;13.40;99.90
52415;DHT22;38340;52.964;6.086;2023-05-07T01:15:24;13.40;99.90
52415;DHT22;38340;52.964;6.086;2023-05-07T01:17:49;13.30;99.90
52415;DHT22;38340;52.964;6.086;2023-05-07T01:20:15;13.40;99.90
52415;DHT22;38340;52.964;6.086;2023-05-07T01:22:43;13.40;99.90
52415;DHT22;38340;52.964;6.086;2023-05-07T01:25:08;13.30;99.90
52415;DHT22;38340;52.964;6.086;2023-05-07T01:27:34;13.40;99.90
52415;DHT22;38340;52.964;6.086;2023-05-07T01:30:02;13.40;99.90
52415;DHT22;38340;52.964;6.086;2023-05-07T01:32:33;13.40;99.90
52415;DHT22;38340;52.964;6.086;2023-05-07T01:35:02;13.40;99.90
52415;DHT22;38340;52.964;6.086;2023-05-07T01:37:28;13.30;99.90
52415;DHT22;38340;52.964;6.086;2023-05-07T01:39:55;13.30;99.90
52415;DHT22;38340;52.964;6.086;2023-05-07T01:42:21;13.30;99.90
52415;DHT22;38340;52.964;6.086;2023-05-07T01:44:47;13.30;99.90
52415;DHT22;38340;52.964;6.086;2023-05-07T01:47:14;13.30;99.90
52415;DHT22;38340;52.964;6.086;2023-05-07T01:49:41;13.30;99.90
52415;DHT22;38340;52.964;6.086;2023-05-07T01:52:07;13.30;99.90
52415;DHT22;38340;52.964;6.086;2023-05-07T01:54:33;13.20;99.90
52415;DHT22;38340;52.964;6.086;2023-05-07T01:56:59;13.20;99.90
52415;DHT22;38340;52.964;6.086;2023-05-07T01:59:25;13.20;99.90
52415;DHT22;38340;52.964;6.086;2023-05-07T02:01:51;13.10;99.90
52415;DHT22;38340;52.964;6.086;2023-05-07T02:04:17;13.10;99.90
52415;DHT22;38340;52.964;6.086;2023-05-07T02:06:43;13.10;99.90
52415;DHT22;38340;52.964;6.086;2023-05-07T02:09:09;13.10;99.90
52415;DHT22;38340;52.964;6.086;2023-05-07T02:11:34;13.00;99.90
52415;DHT22;38340;52.964;6.086;2023-05-07T02:14:00;13.00;99.90
52415;DHT22;38340;52.964;6.086;2023-05-07T02:16:26;13.00;99.90
52415;DHT22;38340;52.964;6.086;2023-05-07T02:18:52;13.00;99.90
52415;DHT22;38340;52.964;6.086;2023-05-07T02:21:17;13.00;99.90
52415;DHT22;38340;52.964;6.086;2023-05-07T02:23:43;12.90;99.90
52415;DHT22;38340;52.964;6.086;2023-05-07T02:26:10;12.90;99.90
52415;DHT22;38340;52.964;6.086;2023-05-07T02:28:36;12.80;99.90
52415;DHT22;38340;52.964;6.086;2023-05-07T02:31:05;12.80;99.90
52415;DHT22;38340;52.964;6.086;2023-05-07T02:33:31;12.80;99.90
52415;DHT22;38340;52.964;6.086;2023-05-07T02:35:57;12.70;99.90
52415;DHT22;38340;52.964;6.086;2023-05-07T02:38:23;12.70;99.90
52415;DHT22;38340;52.964;6.086;2023-05-07T02:40:48;12.70;99.90
52415;DHT22;38340;52.964;6.086;2023-05-07T02:43:14;12.70;99.90
52415;DHT22;38340;52.964;6.086;2023-05-07T02:45:40;12.60;99.90
52415;DHT22;38340;52.964;6.086;2023-05-07T02:48:06;12.60;99.90
52415;DHT22;38340;52.964;6.086;2023-05-07T02:50:31;12.60;99.90
52415;DHT22;38340;52.964;6.086;2023-05-07T02:52:58;12.60;99.90
52415;DHT22;38340;52.964;6.086;2023-05-07T02:55:24;12.50;99.90
52415;DHT22;38340;52.964;6.086;2023-05-07T02:57:50;12.50;99.90
52415;DHT22;38340;52.964;6.086;2023-05-07T03:00:17;12.50;99.90
52415;DHT22;38340;52.964;6.086;2023-05-07T03:02:44;12.50;99.90
52415;DHT22;38340;52.964;6.086;2023-05-07T03:05:10;12.40;99.90
52415;DHT22;38340;52.964;6.086;2023-05-07T03:07:37;12.40;99.90
52415;DHT22;38340;52.964;6.086;2023-05-07T03:10:04;12.40;99.90
52415;DHT22;38340;52.964;6.086;2023-05-07T03:12:30;12.40;99.90
52415;DHT22;38340;52.964;6.086;2023-05-07T03:14:56;12.30;99.90
52415;DHT22;38340;52.964;6.086;2023-05-07T03:17:22;12.30;99.90
52415;DHT22;38340;52.964;6.086;2023-05-07T03:19:48;12.30;99.90
52415;DHT22;38340;52.964;6.086;2023-05-07T03:22:14;12.20;99.90
52415;DHT22;38340;52.964;6.086;2023-05-07T03:24:40;12.20;99.90
52415;DHT22;38340;52.964;6.086;2023-05-07T03:27:05;12.20;99.90
52415;DHT22;38340;52.964;6.086;2023-05-07T03:29:31;12.20;99.90
52415;DHT22;38340;52.964;6.086;2023-05-07T03:31:57;12.10;99.90
52415;DHT22;38340;52.964;6.086;2023-05-07T03:34:23;12.10;99.90
52415;DHT22;38340;52.964;6.086;2023-05-07T03:36:49;12.10;99.90
52415;DHT22;38340;52.964;6.086;2023-05-07T03:39:15;12.10;99.90
52415;DHT22;38340;52.964;6.086;2023-05-07T03:41:41;12.00;99.90
52415;DHT22;38340;52.964;6.086;2023-05-07T03:44:06;12.00;99.90
52415;DHT22;38340;52.964;6.086;2023-05-07T03:46:33;12.00;99.90
52415;DHT22;38340;52.964;6.086;2023-05-07T03:48:58;12.00;99.90
52415;DHT22;38340;52.964;6.086;2023-05-07T03:51:31;11.90;99.90
52415;DHT22;38340;52.964;6.086;2023-05-07T03:53:56;11.90;99.90
52415;DHT22;38340;52.964;6.086;2023-05-07T03:56:25;11.90;99.90
52415;DHT22;38340;52.964;6.086;2023-05-07T03:58:52;11.90;99.90
52415;DHT22;38340;52.964;6.086;2023-05-07T04:01:18;11.90;99.90
52415;DHT22;38340;52.964;6.086;2023-05-07T04:03:43;11.90;99.90
52415;DHT22;38340;52.964;6.086;2023-05-07T04:06:09;11.80;99.90
52415;DHT22;38340;52.964;6.086;2023-05-07T04:08:35;11.80;99.90
52415;DHT22;38340;52.964;6.086;2023-05-07T04:11:00;11.80;99.90
52415;DHT22;38340;52.964;6.086;2023-05-07T04:13:26;11.70;99.90
52415;DHT22;38340;52.964;6.086;2023-05-07T04:15:53;11.80;99.90
52415;DHT22;38340;52.964;6.086;2023-05-07T04:18:19;11.70;99.90
52415;DHT22;38340;52.964;6.086;2023-05-07T04:20:45;11.70;99.90
52415;DHT22;38340;52.964;6.086;2023-05-07T04:23:11;11.70;99.90
52415;DHT22;38340;52.964;6.086;2023-05-07T04:25:36;11.70;99.90
52415;DHT22;38340;52.964;6.086;2023-05-07T04:28:02;11.70;99.90
52415;DHT22;38340;52.964;6.086;2023-05-07T04:30:28;11.70;99.90
52415;DHT22;38340;52.964;6.086;2023-05-07T04:32:53;11.70;99.90
52415;DHT22;38340;52.964;6.086;2023-05-07T04:35:19;11.70;99.90
52415;DHT22;38340;52.964;6.086;2023-05-07T04:37:45;11.60;99.90
52415;DHT22;38340;52.964;6.086;2023-05-07T04:40:11;11.70;99.90
52415;DHT22;38340;52.964;6.086;2023-05-07T04:42:36;11.70;99.90
52415;DHT22;38340;52.964;6.086;2023-05-07T04:45:02;11.70;99.90
52415;DHT22;38340;52.964;6.086;2023-05-07T04:47:28;11.70;99.90
52415;DHT22;38340;52.964;6.086;2023-05-07T04:49:54;11.70;99.90
52415;DHT22;38340;52.964;6.086;2023-05-07T04:52:19;11.70;99.90
52415;DHT22;38340;52.964;6.086;2023-05-07T04:54:45;11.70;99.90
52415;DHT22;38340;52.964;6.086;2023-05-07T04:57:11;11.70;99.90
52415;DHT22;38340;52.964;6.086;2023-05-07T04:59:37;11.70;99.90
52415;DHT22;38340;52.964;6.086;2023-05-07T05:02:02;11.70;99.90
52415;DHT22;38340;52.964;6.086;2023-05-07T05:04:30;11.70;99.90
52415;DHT22;38340;52.964;6.086;2023-05-07T05:06:55;11.70;99.90
52415;DHT22;38340;52.964;6.086;2023-05-07T05:09:21;11.70;99.90
52415;DHT22;38340;52.964;6.086;2023-05-07T05:11:47;11.70;99.90
52415;DHT22;38340;52.964;6.086;2023-05-07T05:14:13;11.70;99.90
52415;DHT22;38340;52.964;6.086;2023-05-07T05:16:38;11.70;99.90
52415;DHT22;38340;52.964;6.086;2023-05-07T05:19:04;11.70;99.90
52415;DHT22;38340;52.964;6.086;2023-05-07T05:21:31;11.80;99.90
52415;DHT22;38340;52.964;6.086;2023-05-07T05:23:57;11.70;99.90
52415;DHT22;38340;52.964;6.086;2023-05-07T05:26:23;11.80;99.90
52415;DHT22;38340;52.964;6.086;2023-05-07T05:28:49;11.80;99.90
52415;DHT22;38340;52.964;6.086;2023-05-07T05:31:16;11.80;99.90
52415;DHT22;38340;52.964;6.086;2023-05-07T05:33:41;11.80;99.90
52415;DHT22;38340;52.964;6.086;2023-05-07T05:36:09;11.90;99.90
52415;DHT22;38340;52.964;6.086;2023-05-07T05:38:35;11.90;99.90
52415;DHT22;38340;52.964;6.086;2023-05-07T05:41:01;11.90;99.90
52415;DHT22;38340;52.964;6.086;2023-05-07T05:43:27;11.90;99.90
52415;DHT22;38340;52.964;6.086;2023-05-07T05:45:52;12.00;99.90
52415;DHT22;38340;52.964;6.086;2023-05-07T05:48:18;12.00;99.90
52415;DHT22;38340;52.964;6.086;2023-05-07T05:50:44;12.00;99.90
52415;DHT22;38340;52.964;6.086;2023-05-07T05:53:09;12.00;99.90
52415;DHT22;38340;52.964;6.086;2023-05-07T05:55:35;12.10;99.90
52415;DHT22;38340;52.964;6.086;2023-05-07T05:58:01;12.10;99.90
52415;DHT22;38340;52.964;6.086;2023-05-07T06:00:27;12.10;99.90
52415;DHT22;38340;52.964;6.086;2023-05-07T06:02:53;12.20;99.90
52415;DHT22;38340;52.964;6.086;2023-05-07T06:05:18;12.30;99.90
52415;DHT22;38340;52.964;6.086;2023-05-07T06:07:44;12.30;99.90
52415;DHT22;38340;52.964;6.086;2023-05-07T06:10:10;12.40;99.90
52415;DHT22;38340;52.964;6.086;2023-05-07T06:12:35;12.50;99.90
52415;DHT22;38340;52.964;6.086;2023-05-07T06:15:01;12.50;99.90
52415;DHT22;38340;52.964;6.086;2023-05-07T06:17:27;12.60;99.90
52415;DHT22;38340;52.964;6.086;2023-05-07T06:19:53;12.60;99.90
52415;DHT22;38340;52.964;6.086;2023-05-07T06:22:18;12.60;99.90
52415;DHT22;38340;52.964;6.086;2023-05-07T06:24:44;12.80;99.90
52415;DHT22;38340;52.964;6.086;2023-05-07T06:27:10;12.90;99.90
52415;DHT22;38340;52.964;6.086;2023-05-07T06:29:36;13.00;99.90
52415;DHT22;38340;52.964;6.086;2023-05-07T06:32:12;13.10;99.90
52415;DHT22;38340;52.964;6.086;2023-05-07T06:34:39;13.20;99.90
52415;DHT22;38340;52.964;6.086;2023-05-07T06:37:05;13.30;99.90
52415;DHT22;38340;52.964;6.086;2023-05-07T06:39:31;13.40;99.90
52415;DHT22;38340;52.964;6.086;2023-05-07T06:41:56;13.50;99.90
52415;DHT22;38340;52.964;6.086;2023-05-07T06:44:22;13.50;99.90
52415;DHT22;38340;52.964;6.086;2023-05-07T06:46:48;13.60;99.90
52415;DHT22;38340;52.964;6.086;2023-05-07T06:49:14;13.60;99.90
52415;DHT22;38340;52.964;6.086;2023-05-07T06:51:40;13.60;99.90
52415;DHT22;38340;52.964;6.086;2023-05-07T06:54:05;13.70;99.90
52415;DHT22;38340;52.964;6.086;2023-05-07T06:56:32;13.90;99.90
52415;DHT22;38340;52.964;6.086;2023-05-07T06:58:57;14.20;99.90
52415;DHT22;38340;52.964;6.086;2023-05-07T07:01:23;14.50;99.90
52415;DHT22;38340;52.964;6.086;2023-05-07T07:03:49;14.60;99.90
52415;DHT22;38340;52.964;6.086;2023-05-07T07:06:16;14.70;99.90
52415;DHT22;38340;52.964;6.086;2023-05-07T07:08:42;14.90;99.90
52415;DHT22;38340;52.964;6.086;2023-05-07T07:11:08;15.00;99.90
52415;DHT22;38340;52.964;6.086;2023-05-07T07:13:34;15.10;99.90
52415;DHT22;38340;52.964;6.086;2023-05-07T07:16:00;15.10;99.90
52415;DHT22;38340;52.964;6.086;2023-05-07T07:18:25;15.10;99.90
52415;DHT22;38340;52.964;6.086;2023-05-07T07:20:51;15.00;99.90
52415;DHT22;38340;52.964;6.086;2023-05-07T07:23:17;14.90;99.90
52415;DHT22;38340;52.964;6.086;2023-05-07T07:25:43;14.80;99.90
52415;DHT22;38340;52.964;6.086;2023-05-07T07:28:08;14.90;99.90
52415;DHT22;38340;52.964;6.086;2023-05-07T07:30:34;14.90;99.90
52415;DHT22;38340;52.964;6.086;2023-05-07T07:33:00;14.90;99.90
52415;DHT22;38340;52.964;6.086;2023-05-07T07:35:29;14.80;99.90
52415;DHT22;38340;52.964;6.086;2023-05-07T07:37:55;14.90;99.90
52415;DHT22;38340;52.964;6.086;2023-05-07T07:40:21;14.90;99.90
52415;DHT22;38340;52.964;6.086;2023-05-07T07:42:46;14.90;99.90
52415;DHT22;38340;52.964;6.086;2023-05-07T07:45:12;14.90;99.90
52415;DHT22;38340;52.964;6.086;2023-05-07T07:47:39;14.90;99.90
52415;DHT22;38340;52.964;6.086;2023-05-07T07:50:06;14.90;99.90
52415;DHT22;38340;52.964;6.086;2023-05-07T07:52:31;14.90;99.90
52415;DHT22;38340;52.964;6.086;2023-05-07T07:54:57;15.00;99.90
52415;DHT22;38340;52.964;6.086;2023-05-07T07:57:23;15.00;99.90
52415;DHT22;38340;52.964;6.086;2023-05-07T07:59:49;15.00;99.90
52415;DHT22;38340;52.964;6.086;2023-05-07T08:02:16;15.10;99.90
52415;DHT22;38340;52.964;6.086;2023-05-07T08:04:42;15.20;99.90
52415;DHT22;38340;52.964;6.086;2023-05-07T08:07:11;15.30;99.90
52415;DHT22;38340;52.964;6.086;2023-05-07T08:09:38;15.30;99.90
52415;DHT22;38340;52.964;6.086;2023-05-07T08:12:04;15.40;99.90
52415;DHT22;38340;52.964;6.086;2023-05-07T08:14:30;15.50;99.90
52415;DHT22;38340;52.964;6.086;2023-05-07T08:16:56;15.60;99.90
52415;DHT22;38340;52.964;6.086;2023-05-07T08:19:22;15.80;99.90
52415;DHT22;38340;52.964;6.086;2023-05-07T08:21:48;16.00;99.90
52415;DHT22;38340;52.964;6.086;2023-05-07T08:24:14;16.20;99.90
52415;DHT22;38340;52.964;6.086;2023-05-07T08:26:41;16.30;99.90
52415;DHT22;38340;52.964;6.086;2023-05-07T08:29:06;16.30;99.90
52415;DHT22;38340;52.964;6.086;2023-05-07T08:31:32;16.40;99.90
52415;DHT22;38340;52.964;6.086;2023-05-07T08:33:58;16.50;99.90
52415;DHT22;38340;52.964;6.086;2023-05-07T08:36:25;16.50;99.90
52415;DHT22;38340;52.964;6.086;2023-05-07T08:38:54;16.50;99.90
52415;DHT22;38340;52.964;6.086;2023-05-07T08:41:20;16.40;99.90
52415;DHT22;38340;52.964;6.086;2023-05-07T08:43:50;16.50;99.90
52415;DHT22;38340;52.964;6.086;2023-05-07T08:46:22;16.60;99.90
52415;DHT22;38340;52.964;6.086;2023-05-07T08:48:49;16.60;99.90
52415;DHT22;38340;52.964;6.086;2023-05-07T08:51:20;16.60;99.90
52415;DHT22;38340;52.964;6.086;2023-05-07T08:53:47;16.70;99.90
52415;DHT22;38340;52.964;6.086;2023-05-07T08:56:17;16.70;99.90
52415;DHT22;38340;52.964;6.086;2023-05-07T08:58:44;16.80;99.90
52415;DHT22;38340;52.964;6.086;2023-05-07T09:01:14;16.90;99.90
52415;DHT22;38340;52.964;6.086;2023-05-07T09:03:40;17.10;99.90
52415;DHT22;38340;52.964;6.086;2023-05-07T09:06:07;17.20;99.90
52415;DHT22;38340;52.964;6.086;2023-05-07T09:08:33;17.30;99.90
52415;DHT22;38340;52.964;6.086;2023-05-07T09:10:59;17.40;99.90
52415;DHT22;38340;52.964;6.086;2023-05-07T09:13:26;17.40;99.90
52415;DHT22;38340;52.964;6.086;2023-05-07T09:15:52;17.40;99.90
52415;DHT22;38340;52.964;6.086;2023-05-07T09:18:18;17.40;99.90
52415;DHT22;38340;52.964;6.086;2023-05-07T09:20:44;17.30;99.90
52415;DHT22;38340;52.964;6.086;2023-05-07T09:23:09;17.20;99.90
52415;DHT22;38340;52.964;6.086;2023-05-07T09:25:36;17.30;99.90
52415;DHT22;38340;52.964;6.086;2023-05-07T09:28:03;17.30;99.90
52415;DHT22;38340;52.964;6.086;2023-05-07T09:30:30;17.40;99.90
52415;DHT22;38340;52.964;6.086;2023-05-07T09:32:58;17.50;99.90
52415;DHT22;38340;52.964;6.086;2023-05-07T09:35:24;17.60;99.90
52415;DHT22;38340;52.964;6.086;2023-05-07T09:37:57;17.60;99.90
52415;DHT22;38340;52.964;6.086;2023-05-07T09:40:28;17.60;99.90
52415;DHT22;38340;52.964;6.086;2023-05-07T09:42:55;17.60;99.90
52415;DHT22;38340;52.964;6.086;2023-05-07T09:45:30;17.70;99.90
52415;DHT22;38340;52.964;6.086;2023-05-07T09:47:58;17.70;99.90
52415;DHT22;38340;52.964;6.086;2023-05-07T09:50:29;17.70;99.90
52415;DHT22;38340;52.964;6.086;2023-05-07T09:52:56;17.80;99.90
52415;DHT22;38340;52.964;6.086;2023-05-07T09:55:22;17.80;99.90
52415;DHT22;38340;52.964;6.086;2023-05-07T09:57:52;18.00;99.90
52415;DHT22;38340;52.964;6.086;2023-05-07T10:00:22;18.10;99.90
52415;DHT22;38340;52.964;6.086;2023-05-07T10:02:49;18.10;99.90
52415;DHT22;38340;52.964;6.086;2023-05-07T10:05:18;18.10;99.90
52415;DHT22;38340;52.964;6.086;2023-05-07T10:07:44;18.10;99.90
52415;DHT22;38340;52.964;6.086;2023-05-07T10:10:10;18.10;99.90
52415;DHT22;38340;52.964;6.086;2023-05-07T10:12:36;18.10;99.90
52415;DHT22;38340;52.964;6.086;2023-05-07T10:15:10;18.00;99.90
52415;DHT22;38340;52.964;6.086;2023-05-07T10:17:38;18.00;99.90
52415;DHT22;38340;52.964;6.086;2023-05-07T10:20:05;18.00;99.90
52415;DHT22;38340;52.964;6.086;2023-05-07T10:22:38;18.00;99.90
52415;DHT22;38340;52.964;6.086;2023-05-07T10:25:08;18.10;99.90
52415;DHT22;38340;52.964;6.086;2023-05-07T10:27:36;18.10;99.90
52415;DHT22;38340;52.964;6.086;2023-05-07T10:31:18;18.20;99.90
52415;DHT22;38340;52.964;6.086;2023-05-07T10:33:12;18.20;99.90
52415;DHT22;38340;52.964;6.086;2023-05-07T10:35:41;18.20;99.60
52415;DHT22;38340;52.964;6.086;2023-05-07T10:38:08;18.30;99.90
52415;DHT22;38340;52.964;6.086;2023-05-07T10:40:34;18.30;99.90
52415;DHT22;38340;52.964;6.086;2023-05-07T10:43:05;18.40;99.90
52415;DHT22;38340;52.964;6.086;2023-05-07T10:45:31;18.40;99.90
52415;DHT22;38340;52.964;6.086;2023-05-07T10:48:11;18.40;99.90
52415;DHT22;38340;52.964;6.086;2023-05-07T10:50:41;18.40;99.90
52415;DHT22;38340;52.964;6.086;2023-05-07T10:55:51;18.50;99.90
52415;DHT22;38340;52.964;6.086;2023-05-07T11:00:47;18.60;99.90
52415;DHT22;38340;52.964;6.086;2023-05-07T11:03:14;18.70;99.90
52415;DHT22;38340;52.964;6.086;2023-05-07T11:05:41;18.70;99.90
52415;DHT22;38340;52.964;6.086;2023-05-07T11:08:08;18.80;55.40
52415;DHT22;38340;52.964;6.086;2023-05-07T11:10:53;18.80;59.60
52415;DHT22;38340;52.964;6.086;2023-05-07T11:13:42;18.90;99.90
52415;DHT22;38340;52.964;6.086;2023-05-07T11:16:24;19.10;99.90
52415;DHT22;38340;52.964;6.086;2023-05-07T11:18:51;19.20;99.90
52415;DHT22;38340;52.964;6.086;2023-05-07T11:21:36;19.30;99.90
52415;DHT22;38340;52.964;6.086;2023-05-07T11:24:03;19.40;84.00
52415;DHT22;38340;52.964;6.086;2023-05-07T11:26:31;19.40;1.00
52415;DHT22;38340;52.964;6.086;2023-05-07T11:29:11;19.30;99.90
52415;DHT22;38340;52.964;6.086;2023-05-07T11:31:37;19.40;12.60
52415;DHT22;38340;52.964;6.086;2023-05-07T11:34:03;19.60;84.20
52415;DHT22;38340;52.964;6.086;2023-05-07T11:36:32;19.70;65.10
52415;DHT22;38340;52.964;6.086;2023-05-07T11:38:58;19.70;1.00
52415;DHT22;38340;52.964;6.086;2023-05-07T11:41:33;19.90;33.00
52415;DHT22;38340;52.964;6.086;2023-05-07T11:44:00;20.20;33.60
52415;DHT22;38340;52.964;6.086;2023-05-07T11:46:27;20.40;8.60
52415;DHT22;38340;52.964;6.086;2023-05-07T11:48:53;20.40;1.00
52415;DHT22;38340;52.964;6.086;2023-05-07T11:51:23;20.30;99.90
52415;DHT22;38340;52.964;6.086;2023-05-07T11:53:49;20.30;99.90
52415;DHT22;38340;52.964;6.086;2023-05-07T11:56:17;20.30;99.90
52415;DHT22;38340;52.964;6.086;2023-05-07T11:58:44;20.30;99.90
52415;DHT22;38340;52.964;6.086;2023-05-07T12:01:11;20.30;99.90
52415;DHT22;38340;52.964;6.086;2023-05-07T12:03:40;20.20;99.90
52415;DHT22;38340;52.964;6.086;2023-05-07T12:06:08;20.20;99.90
52415;DHT22;38340;52.964;6.086;2023-05-07T12:08:37;20.20;99.90
52415;DHT22;38340;52.964;6.086;2023-05-07T12:11:03;20.30;99.90
52415;DHT22;38340;52.964;6.086;2023-05-07T12:13:32;20.40;99.90
52415;DHT22;38340;52.964;6.086;2023-05-07T12:15:58;20.50;99.90
52415;DHT22;38340;52.964;6.086;2023-05-07T12:18:24;20.70;99.90
52415;DHT22;38340;52.964;6.086;2023-05-07T12:20:50;20.70;99.90
52415;DHT22;38340;52.964;6.086;2023-05-07T12:23:16;20.70;1.00
52415;DHT22;38340;52.964;6.086;2023-05-07T12:25:43;20.60;46.00
52415;DHT22;38340;52.964;6.086;2023-05-07T12:28:19;20.60;1.00
52415;DHT22;38340;52.964;6.086;2023-05-07T12:30:49;20.50;1.00
52415;DHT22;38340;52.964;6.086;2023-05-07T12:33:23;20.40;1.00
52415;DHT22;38340;52.964;6.086;2023-05-07T12:35:50;20.30;99.90
52415;DHT22;38340;52.964;6.086;2023-05-07T12:38:17;20.30;1.00
52415;DHT22;38340;52.964;6.086;2023-05-07T12:40:48;20.30;1.00
52415;DHT22;38340;52.964;6.086;2023-05-07T12:43:17;20.50;99.90
52415;DHT22;38340;52.964;6.086;2023-05-07T12:45:44;20.60;99.90
52415;DHT22;38340;52.964;6.086;2023-05-07T12:48:10;20.70;99.90
52415;DHT22;38340;52.964;6.086;2023-05-07T12:50:36;20.70;99.90
52415;DHT22;38340;52.964;6.086;2023-05-07T12:53:06;20.80;99.90
52415;DHT22;38340;52.964;6.086;2023-05-07T12:55:44;20.90;27.90
52415;DHT22;38340;52.964;6.086;2023-05-07T12:58:18;21.00;1.00
52415;DHT22;38340;52.964;6.086;2023-05-07T13:00:45;20.90;99.90
52415;DHT22;38340;52.964;6.086;2023-05-07T13:03:27;20.80;99.90
52415;DHT22;38340;52.964;6.086;2023-05-07T13:06:04;20.70;99.90
52415;DHT22;38340;52.964;6.086;2023-05-07T13:08:38;20.60;99.90
52415;DHT22;38340;52.964;6.086;2023-05-07T13:11:11;20.50;99.90
52415;DHT22;38340;52.964;6.086;2023-05-07T13:13:38;20.60;1.00
52415;DHT22;38340;52.964;6.086;2023-05-07T13:16:08;20.70;1.00
52415;DHT22;38340;52.964;6.086;2023-05-07T13:18:34;20.80;1.00
52415;DHT22;38340;52.964;6.086;2023-05-07T13:21:00;20.90;1.00
52415;DHT22;38340;52.964;6.086;2023-05-07T13:23:27;21.00;1.00
52415;DHT22;38340;52.964;6.086;2023-05-07T13:25:52;21.00;1.00
52415;DHT22;38340;52.964;6.086;2023-05-07T13:28:19;21.00;1.00
52415;DHT22;38340;52.964;6.086;2023-05-07T13:30:46;21.00;99.90
52415;DHT22;38340;52.964;6.086;2023-05-07T13:33:12;20.90;99.90
52415;DHT22;38340;52.964;6.086;2023-05-07T13:35:38;20.60;99.90
52415;DHT22;38340;52.964;6.086;2023-05-07T13:38:04;20.50;99.90
52415;DHT22;38340;52.964;6.086;2023-05-07T13:40:30;20.50;99.90
52415;DHT22;38340;52.964;6.086;2023-05-07T13:42:57;20.50;1.00
52415;DHT22;38340;52.964;6.086;2023-05-07T13:45:24;20.60;34.70
52415;DHT22;38340;52.964;6.086;2023-05-07T13:47:51;20.60;1.00
52415;DHT22;38340;52.964;6.086;2023-05-07T13:50:17;20.70;1.00
52415;DHT22;38340;52.964;6.086;2023-05-07T13:52:44;20.70;99.90
52415;DHT22;38340;52.964;6.086;2023-05-07T13:55:19;20.70;1.00
52415;DHT22;38340;52.964;6.086;2023-05-07T13:57:46;20.90;94.90
52415;DHT22;38340;52.964;6.086;2023-05-07T14:00:13;21.30;99.90
52415;DHT22;38340;52.964;6.086;2023-05-07T14:02:38;21.40;10.30
52415;DHT22;38340;52.964;6.086;2023-05-07T14:05:05;21.60;1.00
52415;DHT22;38340;52.964;6.086;2023-05-07T14:07:30;21.80;99.90
52415;DHT22;38340;52.964;6.086;2023-05-07T14:09:57;21.90;99.90
52415;DHT22;38340;52.964;6.086;2023-05-07T14:12:22;22.00;99.90
52415;DHT22;38340;52.964;6.086;2023-05-07T14:14:48;22.10;99.90
52415;DHT22;38340;52.964;6.086;2023-05-07T14:17:18;22.20;99.90
52415;DHT22;38340;52.964;6.086;2023-05-07T14:19:44;22.20;17.90
52415;DHT22;38340;52.964;6.086;2023-05-07T14:22:10;22.00;1.00
52415;DHT22;38340;52.964;6.086;2023-05-07T14:24:36;22.00;1.00
52415;DHT22;38340;52.964;6.086;2023-05-07T14:27:01;21.90;1.00
52415;DHT22;38340;52.964;6.086;2023-05-07T14:29:28;21.80;99.90
52415;DHT22;38340;52.964;6.086;2023-05-07T14:31:53;21.80;99.90
52415;DHT22;38340;52.964;6.086;2023-05-07T14:34:19;21.70;1.00
52415;DHT22;38340;52.964;6.086;2023-05-07T14:36:45;21.80;1.00
52415;DHT22;38340;52.964;6.086;2023-05-07T14:39:11;21.80;1.00
52415;DHT22;38340;52.964;6.086;2023-05-07T14:41:36;21.90;1.00
52415;DHT22;38340;52.964;6.086;2023-05-07T14:44:02;21.90;1.00
52415;DHT22;38340;52.964;6.086;2023-05-07T14:46:29;22.00;1.00
52415;DHT22;38340;52.964;6.086;2023-05-07T14:48:56;22.10;99.90
52415;DHT22;38340;52.964;6.086;2023-05-07T14:51:22;22.10;99.90
52415;DHT22;38340;52.964;6.086;2023-05-07T14:53:50;22.00;99.90
52415;DHT22;38340;52.964;6.086;2023-05-07T14:56:16;22.00;99.90
52415;DHT22;38340;52.964;6.086;2023-05-07T14:58:42;22.10;1.00
52415;DHT22;38340;52.964;6.086;2023-05-07T15:01:08;22.30;1.00
52415;DHT22;38340;52.964;6.086;2023-05-07T15:03:34;22.40;99.90
52415;DHT22;38340;52.964;6.086;2023-05-07T15:06:00;22.40;99.90
52415;DHT22;38340;52.964;6.086;2023-05-07T15:08:26;22.40;99.90
52415;DHT22;38340;52.964;6.086;2023-05-07T15:10:52;22.40;99.90
52415;DHT22;38340;52.964;6.086;2023-05-07T15:13:18;22.30;99.90
52415;DHT22;38340;52.964;6.086;2023-05-07T15:15:44;22.10;99.90
52415;DHT22;38340;52.964;6.086;2023-05-07T15:18:10;22.00;99.90
52415;DHT22;38340;52.964;6.086;2023-05-07T15:20:36;21.90;1.00
52415;DHT22;38340;52.964;6.086;2023-05-07T15:23:02;21.70;99.90
52415;DHT22;38340;52.964;6.086;2023-05-07T15:25:30;21.60;99.90
52415;DHT22;38340;52.964;6.086;2023-05-07T15:27:56;21.60;1.00
52415;DHT22;38340;52.964;6.086;2023-05-07T15:30:22;21.70;1.00
52415;DHT22;38340;52.964;6.086;2023-05-07T15:32:48;21.90;1.00
52415;DHT22;38340;52.964;6.086;2023-05-07T15:35:14;22.10;1.00
52415;DHT22;38340;52.964;6.086;2023-05-07T15:37:39;22.10;1.00